Time;durP1;ratioP1;P1;durP2;ratioP2;P2;SDS_P1;SDS_P2;PMS_P1;PMS_P2;Temp;Humidity;BMP_temperature;BMP_pressure;BME280_temperature;BME280_humidity;BME280_pressure;Samples;Min_cycle;Max_cycle;Signal;HPM_P1;HPM_P2
2024/04/01 00:01:36;;;;;;;55.03;41.60;;;12.50;99.90;;;;;;5094040;28;20561;-62
2024/04/01 00:04:03;;;;;;;51.43;40.10;;;12.40;99.90;;;;;;5094162;28;20538;-62
2024/04/01 00:06:28;;;;;;;59.50;42.20;;;12.40;99.90;;;;;;5094158;28;20275;-62
2024/04/01 00:08:56;;;;;;;51.30;41.27;;;12.10;99.90;;;;;;5093926;28;20537;-62
2024/04/01 00:11:22;;;;;;;53.20;38.97;;;12.10;99.90;;;;;;5093911;28;20184;-62
2024/04/01 00:13:48;;;;;;;49.50;40.77;;;11.90;99.90;;;;;;5093737;28;20550;-62
2024/04/01 00:16:14;;;;;;;58.33;41.00;;;11.90;99.90;;;;;;5094049;28;20192;-62
2024/04/01 00:18:40;;;;;;;63.93;44.17;;;11.90;99.90;;;;;;5092959;28;20791;-62
2024/04/01 00:21:06;;;;;;;58.97;43.50;;;11.90;99.90;;;;;;5093862;28;20552;-62
2024/04/01 00:23:33;;;;;;;59.53;48.13;;;11.90;99.90;;;;;;5093716;28;20550;-62
2024/04/01 00:25:59;;;;;;;64.17;46.93;;;11.80;99.90;;;;;;5093692;28;20275;-62
2024/04/01 00:28:26;;;;;;;62.53;47.57;;;11.70;99.90;;;;;;5093499;28;20934;-62
2024/04/01 00:30:52;;;;;;;59.67;46.83;;;11.80;99.90;;;;;;5093723;28;21102;-62
2024/04/01 00:33:19;;;;;;;60.83;45.90;;;11.90;99.90;;;;;;5093759;28;20490;-62
2024/04/01 00:35:45;;;;;;;54.10;45.50;;;11.90;99.90;;;;;;5093583;28;20517;-62
2024/04/01 00:38:12;;;;;;;66.37;44.80;;;11.80;99.90;;;;;;5093513;28;20507;-62
2024/04/01 00:40:37;;;;;;;53.57;47.70;;;11.80;99.90;;;;;;5093416;28;20442;-62
2024/04/01 00:43:06;;;;;;;50.83;45.43;;;11.80;99.90;;;;;;5093256;28;20537;-62
2024/04/01 00:45:32;;;;;;;57.00;45.70;;;11.80;99.90;;;;;;5093348;28;20250;-62
2024/04/01 00:48:01;;;;;;;56.33;44.17;;;11.90;99.90;;;;;;5093682;28;20460;-62
2024/04/01 00:50:27;;;;;;;63.40;46.87;;;11.90;99.90;;;;;;5093274;28;20536;-62
2024/04/01 00:52:54;;;;;;;56.57;46.00;;;12.00;99.90;;;;;;5093336;28;20450;-62
2024/04/01 00:55:21;;;;;;;56.00;42.77;;;11.80;99.90;;;;;;5093253;28;20446;-62
2024/04/01 00:57:47;;;;;;;65.63;46.70;;;11.60;99.90;;;;;;5093419;28;20482;-62
2024/04/01 01:00:15;;;;;;;58.47;44.97;;;11.50;99.90;;;;;;5093275;28;20453;-62
2024/04/01 01:02:42;;;;;;;65.97;46.20;;;11.50;99.90;;;;;;5093198;28;20451;-62
2024/04/01 01:05:08;;;;;;;59.43;44.67;;;11.30;99.90;;;;;;5093161;28;20450;-62
2024/04/01 01:07:35;;;;;;;59.97;46.00;;;11.40;99.90;;;;;;5093014;28;20464;-62
2024/04/01 01:10:01;;;;;;;60.93;44.17;;;11.50;99.90;;;;;;5092768;28;20518;-62
2024/04/01 01:12:27;;;;;;;62.87;45.67;;;11.50;99.90;;;;;;5092833;28;20470;-62
2024/04/01 01:14:53;;;;;;;50.70;45.10;;;11.50;99.90;;;;;;5093016;28;20198;-62
2024/04/01 01:17:20;;;;;;;59.97;43.83;;;11.40;99.90;;;;;;5092979;28;20982;-62
2024/04/01 01:19:46;;;;;;;63.13;46.40;;;11.50;99.90;;;;;;5092942;28;20188;-62
2024/04/01 01:22:16;;;;;;;65.57;44.10;;;11.30;99.90;;;;;;5092791;28;21021;-62
2024/04/01 01:24:42;;;;;;;51.60;45.63;;;11.20;99.90;;;;;;5093004;28;20283;-62
2024/04/01 01:27:09;;;;;;;63.77;45.67;;;11.30;99.90;;;;;;5092994;28;20554;-62
2024/04/01 01:29:35;;;;;;;66.47;48.07;;;11.30;99.90;;;;;;5094156;28;20611;-61
2024/04/01 01:32:01;;;;;;;65.47;48.63;;;11.40;99.90;;;;;;5096980;28;20453;-62
2024/04/01 01:34:27;;;;;;;51.97;46.20;;;11.40;99.90;;;;;;5097013;28;20195;-62
2024/04/01 01:36:55;;;;;;;57.20;47.67;;;11.30;99.90;;;;;;5096836;28;20454;-62
2024/04/01 01:39:22;;;;;;;60.20;45.83;;;11.10;99.90;;;;;;5096771;28;20533;-62
2024/04/01 01:41:49;;;;;;;67.30;47.23;;;11.20;99.90;;;;;;5096942;28;20549;-62
2024/04/01 01:44:14;;;;;;;51.30;45.80;;;11.30;99.90;;;;;;5096815;28;20533;-62
2024/04/01 01:46:41;;;;;;;59.43;44.20;;;11.30;99.90;;;;;;5096600;28;20578;-62
2024/04/01 01:49:06;;;;;;;63.83;44.90;;;11.40;99.90;;;;;;5096595;28;20192;-62
2024/04/01 01:51:33;;;;;;;58.33;46.40;;;11.40;99.90;;;;;;5096837;28;21033;-63
2024/04/01 01:53:58;;;;;;;58.80;45.60;;;11.30;99.90;;;;;;5096460;28;20220;-60
2024/04/01 01:56:26;;;;;;;61.87;44.30;;;11.20;99.90;;;;;;5096432;28;20490;-60
2024/04/01 01:58:52;;;;;;;53.67;42.67;;;11.10;99.90;;;;;;5096552;28;20192;-60
2024/04/01 02:01:18;;;;;;;56.47;44.93;;;10.90;99.90;;;;;;5096461;28;20454;-60
2024/04/01 02:03:44;;;;;;;65.57;45.97;;;10.90;99.90;;;;;;5096443;28;20195;-60
2024/04/01 02:06:11;;;;;;;55.53;43.50;;;11.00;99.90;;;;;;5096261;28;20458;-60
2024/04/01 02:08:36;;;;;;;54.13;42.43;;;11.00;99.90;;;;;;5096192;28;20287;-60
2024/04/01 02:11:03;;;;;;;51.47;42.97;;;11.10;99.90;;;;;;5096296;28;20924;-60
2024/04/01 02:13:30;;;;;;;56.97;44.47;;;11.20;99.90;;;;;;5096306;28;20272;-60
2024/04/01 02:16:06;;;;;;;45.93;40.80;;;11.20;99.90;;;;;;5096260;28;20528;-60
2024/04/01 02:18:31;;;;;;;60.13;44.13;;;11.30;99.90;;;;;;5096117;28;20445;-60
2024/04/01 02:20:59;;;;;;;54.30;43.57;;;11.30;99.90;;;;;;5095885;28;20957;-60
2024/04/01 02:23:31;;;;;;;61.20;44.20;;;11.30;99.90;;;;;;5096205;28;20216;-60
2024/04/01 02:26:00;;;;;;;56.33;43.87;;;11.20;99.90;;;;;;5096099;28;20486;-61
2024/04/01 02:28:26;;;;;;;54.47;43.73;;;10.90;99.90;;;;;;5095940;28;20442;-60
2024/04/01 02:30:53;;;;;;;47.67;41.43;;;11.00;99.90;;;;;;5095804;28;20573;-61
2024/04/01 02:33:19;;;;;;;48.13;42.70;;;11.00;99.90;;;;;;5095766;28;20449;-63
2024/04/01 02:35:45;;;;;;;52.10;44.90;;;11.00;99.90;;;;;;5095930;28;20545;-62
2024/04/01 02:38:11;;;;;;;54.77;41.23;;;11.10;99.90;;;;;;5095983;28;20206;-62
2024/04/01 02:40:37;;;;;;;59.27;42.20;;;11.20;99.90;;;;;;5094920;28;20537;-62
2024/04/01 02:43:03;;;;;;;51.13;40.20;;;11.20;99.90;;;;;;5095433;28;20211;-61
2024/04/01 02:45:30;;;;;;;56.73;38.63;;;11.20;99.90;;;;;;5095477;28;20880;-62
2024/04/01 02:47:57;;;;;;;50.83;37.57;;;11.20;99.90;;;;;;5095480;28;20442;-61
2024/04/01 02:50:23;;;;;;;49.63;37.90;;;11.30;99.90;;;;;;5095579;28;20482;-62
2024/04/01 02:52:49;;;;;;;47.57;36.47;;;11.30;99.90;;;;;;5095430;28;20447;-62
2024/04/01 02:55:16;;;;;;;46.60;37.40;;;11.30;99.90;;;;;;5095323;28;20549;-62
2024/04/01 02:57:43;;;;;;;40.33;34.23;;;11.30;99.90;;;;;;5095262;28;20189;-62
2024/04/01 03:00:16;;;;;;;48.33;33.50;;;11.30;99.90;;;;;;5095048;28;20950;-62
2024/04/01 03:02:41;;;;;;;39.27;33.97;;;11.30;99.90;;;;;;5095277;28;20504;-62
2024/04/01 03:05:09;;;;;;;38.20;32.30;;;11.30;99.90;;;;;;5095158;28;20490;-62
2024/04/01 03:07:35;;;;;;;48.27;33.73;;;11.30;99.90;;;;;;5095101;28;20527;-63
2024/04/01 03:10:02;;;;;;;44.27;31.90;;;11.30;99.90;;;;;;5094946;28;20577;-62
2024/04/01 03:12:27;;;;;;;41.77;29.83;;;11.30;99.90;;;;;;5094912;28;20185;-62
2024/04/01 03:14:54;;;;;;;41.93;29.27;;;11.30;99.90;;;;;;5094851;28;20453;-62
2024/04/01 03:17:21;;;;;;;39.53;26.97;;;11.20;99.90;;;;;;5094750;28;20196;-62
2024/04/01 03:19:48;;;;;;;32.77;27.63;;;11.20;99.90;;;;;;5094918;28;20483;-61
2024/04/01 03:22:15;;;;;;;40.53;27.43;;;11.30;99.90;;;;;;5094826;28;20446;-62
2024/04/01 03:24:41;;;;;;;34.43;26.10;;;11.30;99.90;;;;;;5094796;28;20457;-62
2024/04/01 03:27:07;;;;;;;32.60;24.40;;;11.30;99.90;;;;;;5094636;28;20438;-62
2024/04/01 03:29:33;;;;;;;40.80;24.57;;;11.30;99.90;;;;;;5094417;28;20878;-62
2024/04/01 03:31:59;;;;;;;32.73;24.13;;;11.30;99.90;;;;;;5094760;28;20195;-62
2024/04/01 03:34:25;;;;;;;35.87;21.40;;;11.30;99.90;;;;;;5094661;28;20533;-62
2024/04/01 03:36:54;;;;;;;37.43;20.70;;;11.30;99.90;;;;;;5094494;28;20189;-62
2024/04/01 03:39:22;;;;;;;26.93;19.47;;;11.30;99.90;;;;;;5094811;28;20545;-62
2024/04/01 03:41:48;;;;;;;41.67;21.83;;;11.30;99.90;;;;;;5094350;28;20485;-62
2024/04/01 03:44:15;;;;;;;27.90;20.37;;;11.30;99.90;;;;;;5094218;28;20450;-62
2024/04/01 03:46:41;;;;;;;33.33;21.20;;;11.30;99.90;;;;;;5094281;28;20467;-61
2024/04/01 03:49:08;;;;;;;30.10;19.10;;;11.30;99.90;;;;;;5094340;28;20546;-62
2024/04/01 03:51:33;;;;;;;30.73;20.30;;;11.30;99.90;;;;;;5094168;28;21036;-62
2024/04/01 03:54:00;;;;;;;32.73;20.83;;;11.40;99.90;;;;;;5093946;28;20529;-62
2024/04/01 03:56:27;;;;;;;36.37;21.20;;;11.30;99.90;;;;;;5094069;28;20215;-62
2024/04/01 03:58:53;;;;;;;25.93;20.37;;;11.30;99.90;;;;;;5093924;28;20493;-62
2024/04/01 04:01:19;;;;;;;38.40;20.70;;;11.30;99.90;;;;;;5094133;28;20510;-62
2024/04/01 04:03:45;;;;;;;32.07;20.70;;;11.20;99.90;;;;;;5094018;28;20542;-60
2024/04/01 04:06:11;;;;;;;29.80;20.97;;;11.20;99.90;;;;;;5094051;28;20280;-60
2024/04/01 04:08:37;;;;;;;30.23;19.63;;;11.20;99.90;;;;;;5093889;28;20880;-63
2024/04/01 04:11:07;;;;;;;33.80;20.57;;;11.20;99.90;;;;;;5093713;28;20226;-62
2024/04/01 04:13:34;;;;;;;33.13;21.23;;;11.10;99.90;;;;;;5093589;28;20448;-62
2024/04/01 04:16:00;;;;;;;32.00;20.83;;;11.00;99.90;;;;;;5093811;28;20476;-62
2024/04/01 04:18:26;;;;;;;32.47;20.30;;;11.10;99.90;;;;;;5093746;28;20533;-63
2024/04/01 04:20:54;;;;;;;37.73;20.57;;;11.10;99.90;;;;;;5093691;28;20220;-62
2024/04/01 04:23:21;;;;;;;28.80;19.83;;;11.10;99.90;;;;;;5093647;28;20450;-62
2024/04/01 04:25:46;;;;;;;33.90;21.10;;;11.10;99.90;;;;;;5093448;28;20472;-62
2024/04/01 04:28:13;;;;;;;35.73;20.63;;;11.20;99.90;;;;;;5093394;28;20450;-62
2024/04/01 04:30:40;;;;;;;31.77;20.63;;;11.20;99.90;;;;;;5093586;28;20217;-62
2024/04/01 04:33:06;;;;;;;31.20;20.30;;;11.30;99.90;;;;;;5093535;28;20542;-60
2024/04/01 04:35:32;;;;;;;37.43;22.60;;;11.10;99.90;;;;;;5093702;28;20449;-62
2024/04/01 04:37:58;;;;;;;36.53;19.93;;;11.10;99.90;;;;;;5093491;28;20534;-62
2024/04/01 04:40:24;;;;;;;27.30;18.77;;;11.20;99.90;;;;;;5093432;28;20196;-62
2024/04/01 04:42:51;;;;;;;33.03;19.80;;;11.20;99.90;;;;;;5093331;28;20776;-62
2024/04/01 04:45:17;;;;;;;24.63;19.30;;;11.30;99.90;;;;;;5093387;28;20215;-63
2024/04/01 04:47:45;;;;;;;36.63;18.53;;;11.30;99.90;;;;;;5093505;28;20464;-62
2024/04/01 04:50:11;;;;;;;31.70;18.70;;;11.40;99.90;;;;;;5093362;28;20502;-62
2024/04/01 04:52:38;;;;;;;26.63;17.37;;;11.40;99.90;;;;;;5093305;28;20780;-62
2024/04/01 04:55:05;;;;;;;27.37;17.60;;;11.40;99.90;;;;;;5093129;28;20533;-63
2024/04/01 04:57:31;;;;;;;31.20;19.20;;;11.30;99.90;;;;;;5093365;28;20457;-62
2024/04/01 04:59:57;;;;;;;34.10;18.10;;;11.20;99.90;;;;;;5093354;28;20525;-62
2024/04/01 05:02:23;;;;;;;33.57;19.00;;;11.20;99.90;;;;;;5093239;28;20486;-62
2024/04/01 05:04:50;;;;;;;32.33;18.90;;;11.20;99.90;;;;;;5092579;28;20185;-62
2024/04/01 05:07:17;;;;;;;34.67;19.90;;;11.20;99.90;;;;;;5093076;28;20454;-62
2024/04/01 05:09:42;;;;;;;28.30;18.57;;;11.10;99.90;;;;;;5093064;28;20449;-62
2024/04/01 05:12:09;;;;;;;37.77;17.73;;;11.10;99.90;;;;;;5093063;28;20571;-60
2024/04/01 05:14:35;;;;;;;35.80;17.47;;;11.10;99.90;;;;;;5092817;28;20666;-62
2024/04/01 05:17:01;;;;;;;40.83;17.07;;;11.10;99.90;;;;;;5092953;28;20534;-62
2024/04/01 05:19:27;;;;;;;31.33;17.17;;;11.10;99.90;;;;;;5092983;28;20237;-62
2024/04/01 05:21:55;;;;;;;36.33;17.70;;;11.10;99.90;;;;;;5092869;28;20458;-60
2024/04/01 05:24:21;;;;;;;35.27;17.27;;;11.20;99.90;;;;;;5092689;28;20593;-62
2024/04/01 05:26:47;;;;;;;44.73;17.50;;;11.20;99.90;;;;;;5092922;28;20504;-62
2024/04/01 05:29:13;;;;;;;38.20;16.70;;;11.20;99.90;;;;;;5093148;28;20184;-62
2024/04/01 05:31:39;;;;;;;36.67;18.13;;;11.10;99.90;;;;;;5092895;28;20569;-62
2024/04/01 05:34:08;;;;;;;39.40;17.60;;;11.20;99.90;;;;;;5092714;28;20279;-61
2024/04/01 05:36:34;;;;;;;32.23;18.53;;;11.20;99.90;;;;;;5092633;28;20478;-62
2024/04/01 05:39:03;;;;;;;33.53;18.33;;;11.20;99.90;;;;;;5092624;28;20529;-62
2024/04/01 05:41:29;;;;;;;35.63;19.33;;;11.20;99.90;;;;;;5092833;28;20481;-62
2024/04/01 05:43:55;;;;;;;38.60;17.87;;;11.20;99.90;;;;;;5092778;28;20525;-62
2024/04/01 05:46:21;;;;;;;39.37;17.97;;;11.30;99.90;;;;;;5092468;28;20521;-60
2024/04/01 05:48:47;;;;;;;32.60;18.00;;;11.30;99.90;;;;;;5092882;28;20276;-62
2024/04/01 05:51:14;;;;;;;40.03;17.87;;;11.40;99.90;;;;;;5092396;28;20914;-62
2024/04/01 05:53:39;;;;;;;34.10;18.37;;;11.50;99.90;;;;;;5092747;28;20188;-62
2024/04/01 05:56:07;;;;;;;42.77;18.10;;;11.60;99.90;;;;;;5092614;28;20504;-62
2024/04/01 05:58:35;;;;;;;31.30;17.40;;;11.80;99.90;;;;;;5092704;28;20279;-62
2024/04/01 06:01:02;;;;;;;36.70;17.10;;;12.00;99.90;;;;;;5092577;28;20885;-62
2024/04/01 06:03:28;;;;;;;36.30;16.23;;;12.20;99.90;;;;;;5092488;28;20438;-62
2024/04/01 06:05:54;;;;;;;41.17;16.60;;;12.50;99.90;;;;;;5092305;28;20564;-62
2024/04/01 06:08:20;;;;;;;36.07;14.80;;;12.90;99.90;;;;;;5092689;28;20550;-62
2024/04/01 06:10:46;;;;;;;33.70;15.90;;;13.20;99.90;;;;;;5092698;28;20557;-62
2024/04/01 06:13:13;;;;;;;29.53;15.00;;;13.50;99.90;;;;;;5092503;28;20191;-62
2024/04/01 06:15:40;;;;;;;35.50;15.27;;;13.60;99.90;;;;;;5093740;28;20450;-63
2024/04/01 06:18:06;;;;;;;31.33;15.07;;;13.60;99.90;;;;;;5096000;28;20524;-62
2024/04/01 06:20:32;;;;;;;38.90;15.73;;;13.50;99.90;;;;;;5095903;28;20478;-62
2024/04/01 06:22:58;;;;;;;34.43;14.87;;;13.60;99.90;;;;;;5096133;28;20438;-62
2024/04/01 06:25:24;;;;;;;39.00;14.97;;;13.80;99.90;;;;;;5096037;28;20542;-62
2024/04/01 06:27:50;;;;;;;40.90;16.37;;;13.80;99.90;;;;;;5095890;28;20190;-62
2024/04/01 06:30:18;;;;;;;28.20;13.93;;;13.50;99.90;;;;;;5095723;28;20877;-60
2024/04/01 06:32:43;;;;;;;54.00;17.20;;;13.30;99.90;;;;;;5095703;28;20271;-60
2024/04/01 06:35:10;;;;;;;36.83;16.20;;;13.20;99.90;;;;;;5095566;28;20853;-61
2024/04/01 06:37:35;;;;;;;46.70;16.20;;;13.00;99.90;;;;;;5095826;28;20216;-62
2024/04/01 06:40:02;;;;;;;44.37;15.17;;;12.80;99.90;;;;;;5095608;28;20487;-61
2024/04/01 06:42:27;;;;;;;33.63;15.70;;;12.80;99.90;;;;;;5095538;28;20545;-60
2024/04/01 06:44:54;;;;;;;42.60;17.57;;;12.70;99.90;;;;;;5095546;28;20537;-60
2024/04/01 06:47:21;;;;;;;46.60;15.60;;;12.70;99.90;;;;;;5095017;28;20553;-62
2024/04/01 06:49:48;;;;;;;38.73;15.70;;;12.70;99.90;;;;;;5095300;28;20490;-62
2024/04/01 06:52:13;;;;;;;52.10;15.70;;;12.50;99.90;;;;;;5095548;28;20563;-62
2024/04/01 06:54:40;;;;;;;38.53;16.30;;;12.50;99.90;;;;;;5095461;28;20541;-62
2024/04/01 06:57:08;;;;;;;42.17;15.97;;;12.50;99.90;;;;;;5095347;28;20810;-62
2024/04/01 06:59:34;;;;;;;41.20;16.87;;;12.60;99.90;;;;;;5095148;28;20454;-62
2024/04/01 07:02:00;;;;;;;39.57;15.73;;;12.60;99.90;;;;;;5095280;28;20799;-62
2024/04/01 07:04:28;;;;;;;36.93;14.70;;;12.60;99.90;;;;;;5095068;28;20537;-62
2024/04/01 07:06:54;;;;;;;54.83;16.67;;;12.70;99.90;;;;;;5095320;28;20698;-62
2024/04/01 07:09:20;;;;;;;50.23;16.20;;;12.70;99.90;;;;;;5095263;28;20493;-62
2024/04/01 07:11:46;;;;;;;36.67;16.10;;;12.70;99.90;;;;;;5094963;28;20482;-62
2024/04/01 07:14:12;;;;;;;32.83;15.20;;;12.70;99.90;;;;;;5095071;28;20542;-62
2024/04/01 07:16:38;;;;;;;42.37;15.50;;;12.80;99.90;;;;;;5094870;28;20663;-63
2024/04/01 07:19:04;;;;;;;32.67;13.97;;;12.90;99.90;;;;;;5094846;28;20457;-62
2024/04/01 07:21:32;;;;;;;34.87;13.80;;;13.00;99.90;;;;;;5095107;28;20188;-62
2024/04/01 07:23:58;;;;;;;45.20;15.80;;;13.10;99.90;;;;;;5094951;28;20456;-62
2024/04/01 07:26:24;;;;;;;37.13;13.47;;;13.20;99.90;;;;;;5094781;28;20529;-63
2024/04/01 07:28:50;;;;;;;50.97;14.57;;;13.30;99.90;;;;;;5094423;28;20558;-62
2024/04/01 07:31:16;;;;;;;43.67;15.17;;;13.50;99.90;;;;;;5094628;28;20742;-62
2024/04/01 07:33:43;;;;;;;44.73;13.63;;;13.60;99.90;;;;;;5094858;28;20537;-62
2024/04/01 07:36:08;;;;;;;33.00;13.10;;;13.80;99.90;;;;;;5094798;28;20538;-62
2024/04/01 07:38:36;;;;;;;45.73;14.63;;;13.90;99.90;;;;;;5094677;28;20482;-63
2024/04/01 07:41:02;;;;;;;35.93;12.40;;;14.00;99.90;;;;;;5094642;28;20280;-62
2024/04/01 07:43:28;;;;;;;36.83;12.47;;;14.10;99.90;;;;;;5094467;28;21038;-63
2024/04/01 07:45:55;;;;;;;42.60;13.87;;;14.30;99.90;;;;;;5094214;28;20656;-63
2024/04/01 07:48:21;;;;;;;44.23;11.57;;;14.40;99.90;;;;;;5094614;28;20465;-62
2024/04/01 07:50:47;;;;;;;40.57;12.70;;;14.40;99.90;;;;;;5094370;28;20470;-62
2024/04/01 07:53:13;;;;;;;30.97;11.10;;;14.40;99.90;;;;;;5094337;28;20550;-62
2024/04/01 07:55:41;;;;;;;35.77;11.60;;;14.40;99.90;;;;;;5094258;28;20278;-62
2024/04/01 07:58:07;;;;;;;36.73;11.87;;;14.50;99.90;;;;;;5094480;28;20518;-62
2024/04/01 08:00:35;;;;;;;44.23;12.93;;;14.40;99.90;;;;;;5093998;28;20443;-63
2024/04/01 08:03:01;;;;;;;34.30;10.63;;;14.50;99.90;;;;;;5094195;28;20454;-62
2024/04/01 08:05:27;;;;;;;26.80;10.70;;;14.50;99.90;;;;;;5094181;28;20449;-62
2024/04/01 08:07:53;;;;;;;34.13;10.83;;;14.60;99.90;;;;;;5094031;28;20873;-62
2024/04/01 08:10:19;;;;;;;35.33;10.93;;;14.60;99.90;;;;;;5094019;28;20192;-62
2024/04/01 08:12:47;;;;;;;33.90;11.07;;;14.60;99.90;;;;;;5094012;28;20572;-62
2024/04/01 08:15:12;;;;;;;40.67;11.60;;;14.60;99.90;;;;;;5094038;28;20188;-63
2024/04/01 08:17:39;;;;;;;37.87;11.10;;;14.60;99.90;;;;;;5094116;28;20915;-62
2024/04/01 08:20:05;;;;;;;26.40;9.67;;;14.80;99.90;;;;;;5093791;28;20191;-63
2024/04/01 08:22:33;;;;;;;29.03;10.53;;;14.90;99.90;;;;;;5093759;28;20452;-62
2024/04/01 08:24:58;;;;;;;30.30;9.87;;;15.10;99.90;;;;;;5093625;28;20436;-63
2024/04/01 08:27:25;;;;;;;31.20;9.30;;;15.20;99.90;;;;;;5093512;28;20814;-62
2024/04/01 08:29:52;;;;;;;32.17;9.67;;;15.40;99.90;;;;;;5093543;28;20568;-62
2024/04/01 08:32:19;;;;;;;32.77;9.40;;;15.60;99.90;;;;;;5093549;28;20548;-62
2024/04/01 08:34:45;;;;;;;26.87;9.10;;;15.60;99.90;;;;;;5093620;28;20536;-62
2024/04/01 08:37:11;;;;;;;31.23;9.40;;;15.80;99.90;;;;;;5093497;28;20540;-62
2024/04/01 08:39:37;;;;;;;29.13;9.20;;;15.90;99.90;;;;;;5092596;28;20578;-62
2024/04/01 08:42:06;;;;;;;31.30;9.17;;;16.00;99.90;;;;;;5093435;28;20286;-62
2024/04/01 08:44:33;;;;;;;35.43;9.20;;;16.10;99.90;;;;;;5093423;28;20538;-63
2024/04/01 08:47:01;;;;;;;24.60;8.20;;;16.20;99.90;;;;;;5093199;28;20477;-62
2024/04/01 08:49:39;;;;;;;27.20;8.07;;;16.40;99.90;;;;;;5093372;28;20864;-63
2024/04/01 08:52:11;;;;;;;36.70;11.33;;;16.60;99.90;;;;;;5093087;28;20481;-62
2024/04/01 08:54:39;;;;;;;37.97;10.07;;;16.90;99.90;;;;;;5093151;28;20454;-60
2024/04/01 08:57:04;;;;;;;27.93;8.13;;;17.20;99.90;;;;;;5092947;28;21025;-63
2024/04/01 08:59:32;;;;;;;27.53;8.93;;;17.30;99.90;;;;;;5093281;28;20541;-63
2024/04/01 09:01:57;;;;;;;21.50;7.13;;;17.50;99.90;;;;;;5093541;28;20188;-63
2024/04/01 09:04:25;;;;;;;27.43;7.47;;;17.50;99.90;;;;;;5093211;28;20541;-63
2024/04/01 09:06:51;;;;;;;21.17;7.43;;;17.40;99.90;;;;;;5093132;28;20275;-63
2024/04/01 09:09:17;;;;;;;27.50;7.63;;;17.40;99.90;;;;;;5092933;28;20537;-60
2024/04/01 09:11:44;;;;;;;25.90;7.50;;;17.40;99.90;;;;;;5093116;28;20570;-62
2024/04/01 09:14:10;;;;;;;23.80;6.80;;;17.50;99.90;;;;;;5093148;28;20460;-60
2024/04/01 09:16:37;;;;;;;17.73;5.57;;;17.60;99.90;;;;;;5093114;28;20826;-60
2024/04/01 09:19:07;;;;;;;20.33;7.63;;;17.70;99.90;;;;;;5092976;28;20541;-60
2024/04/01 09:21:34;;;;;;;21.63;6.30;;;17.90;99.90;;;;;;5093363;28;20814;-60
2024/04/01 09:24:00;;;;;;;26.23;6.03;;;18.00;99.90;;;;;;5092754;28;20473;-60
2024/04/01 09:26:28;;;;;;;18.67;6.67;;;18.20;99.90;;;;;;5093034;28;20442;-62
2024/04/01 09:28:55;;;;;;;16.27;4.60;;;18.30;99.90;;;;;;5092742;28;20447;-63
2024/04/01 09:31:21;;;;;;;16.80;5.40;;;18.50;99.90;;;;;;5092816;28;20478;-63
2024/04/01 09:33:48;;;;;;;18.63;4.97;;;18.70;99.90;;;;;;5092910;28;20537;-60
2024/04/01 09:36:14;;;;;;;16.17;5.10;;;18.80;99.90;;;;;;5092754;28;20449;-61
2024/04/01 09:38:42;;;;;;;12.80;4.27;;;19.00;99.90;;;;;;5093195;28;20545;-61
2024/04/01 09:41:08;;;;;;;7.83;2.97;;;19.20;99.90;;;;;;5093081;28;20559;-61
2024/04/01 09:43:35;;;;;;;12.83;3.60;;;19.30;99.90;;;;;;5093009;28;20462;-61
2024/04/01 09:46:00;;;;;;;10.23;4.03;;;19.40;99.90;;;;;;5092712;28;20817;-61
2024/04/01 09:48:28;;;;;;;8.27;3.23;;;19.50;99.90;;;;;;5092495;28;20541;-61
2024/04/01 09:50:54;;;;;;;9.40;2.50;;;19.60;99.90;;;;;;5094363;28;20188;-61
2024/04/01 09:53:21;;;;;;;11.63;3.03;;;19.60;99.90;;;;;;5096686;28;20519;-60
2024/04/01 09:56:19;;;;;;;12.73;3.30;;;19.60;99.90;;;;;;5096714;28;20886;-61
2024/04/01 09:59:09;;;;;;;8.90;2.73;;;19.60;99.90;;;;;;5096544;28;20482;-60
2024/04/01 10:01:49;;;;;;;10.03;3.10;;;19.50;99.90;;;;;;5096678;28;20533;-61
2024/04/01 10:04:39;;;;;;;11.13;3.37;;;19.70;99.90;;;;;;5096576;28;20813;-61
2024/04/01 10:07:36;;;;;;;12.30;3.50;;;19.90;99.90;;;;;;5096357;28;20452;-61
2024/04/01 10:10:23;;;;;;;9.67;2.80;;;20.20;99.90;;;;;;5096489;28;20465;-61
2024/04/01 10:13:38;;;;;;;16.33;3.27;;;20.40;99.90;;;;;;5096250;28;20516;-60
2024/04/01 10:16:48;;;;;;;15.40;3.50;;;20.30;99.90;;;;;;5096073;28;20446;-61
2024/04/01 10:19:29;;;;;;;12.87;3.40;;;20.20;99.90;;;;;;5096229;28;20862;-61
2024/04/01 10:22:15;;;;;;;13.23;3.37;;;20.40;99.90;;;;;;5095962;28;20507;-61
2024/04/01 10:25:14;;;;;;;13.23;2.83;;;20.60;99.90;;;;;;5096207;28;20537;-61
2024/04/01 10:28:20;;;;;;;18.00;3.90;;;20.70;99.90;;;;;;5095866;28;20457;-61
2024/04/01 10:31:16;;;;;;;13.47;3.50;;;20.80;99.90;;;;;;5095829;28;20874;-61
2024/04/01 10:34:07;;;;;;;17.53;4.60;;;20.90;99.90;;;;;;5095750;28;20818;-61
2024/04/01 10:36:48;;;;;;;12.00;3.50;;;21.00;99.90;;;;;;5095693;28;20801;-61
2024/04/01 10:39:47;;;;;;;13.10;2.83;;;20.90;99.90;;;;;;5095871;28;20454;-61
2024/04/01 10:42:34;;;;;;;12.73;3.20;;;21.10;99.90;;;;;;5090060;28;20537;-61
2024/04/01 10:45:37;;;;;;;10.33;2.90;;;21.30;99.90;;;;;;5095331;28;20454;-61
2024/04/01 10:48:17;;;;;;;11.03;2.97;;;21.40;98.10;;;;;;5095616;28;20786;-61
2024/04/01 10:51:26;;;;;;;13.60;3.20;;;21.40;98.70;;;;;;5095462;28;20822;-61
2024/04/01 10:54:00;;;;;;;16.47;3.40;;;21.50;98.10;;;;;;5095658;28;20442;-61
2024/04/01 10:57:00;;;;;;;7.87;3.00;;;21.40;97.70;;;;;;5095445;28;20451;-61
2024/04/01 10:59:46;;;;;;;17.97;2.97;;;21.40;96.70;;;;;;5095306;28;20474;-62
2024/04/01 11:02:47;;;;;;;10.67;2.90;;;21.40;97.70;;;;;;5094431;28;20454;-62
2024/04/01 11:05:33;;;;;;;16.70;3.27;;;21.40;97.30;;;;;;5095169;28;20442;-62
2024/04/01 11:08:18;;;;;;;10.03;3.50;;;21.40;97.20;;;;;;5095099;28;20455;-62
2024/04/01 11:10:49;;;;;;;17.47;3.80;;;21.20;96.80;;;;;;5095297;28;20553;-62
2024/04/01 11:13:20;;;;;;;13.90;3.47;;;21.00;97.30;;;;;;5095063;28;20489;-62
2024/04/01 11:15:50;;;;;;;13.53;4.20;;;20.80;97.60;;;;;;5095021;28;20485;-62
2024/04/01 11:18:34;;;;;;;14.17;3.30;;;20.80;98.90;;;;;;5094948;28;20451;-62
2024/04/01 11:21:10;;;;;;;9.10;3.07;;;20.60;98.00;;;;;;5095205;28;20537;-62
2024/04/01 11:23:49;;;;;;;15.57;3.50;;;20.70;99.30;;;;;;5095043;28;20476;-62
2024/04/01 11:26:35;;;;;;;12.90;3.87;;;20.80;99.20;;;;;;5095080;28;20443;-62
2024/04/01 11:29:13;;;;;;;10.80;3.23;;;20.80;99.30;;;;;;5094926;28;20805;-62
2024/04/01 11:31:47;;;;;;;13.60;3.17;;;20.70;98.70;;;;;;5094803;28;20516;-62
2024/04/01 11:34:20;;;;;;;10.03;3.30;;;20.60;99.30;;;;;;5094879;28;20461;-62
2024/04/01 11:36:59;;;;;;;8.17;4.87;;;20.60;99.90;;;;;;5094703;28;20531;-62
2024/04/01 11:39:27;;;;;;;12.30;3.70;;;20.70;99.90;;;;;;5094413;28;20450;-62
2024/04/01 11:41:55;;;;;;;9.53;3.10;;;20.80;99.90;;;;;;5094425;28;20973;-61
2024/04/01 11:44:28;;;;;;;14.10;4.17;;;20.70;99.90;;;;;;5094745;28;20449;-62
2024/04/01 11:46:56;;;;;;;14.53;3.40;;;20.90;99.90;;;;;;5094412;28;20466;-61
2024/04/01 11:49:23;;;;;;;11.60;3.30;;;21.10;99.90;;;;;;5094353;28;20458;-62
2024/04/01 11:51:53;;;;;;;12.50;3.30;;;21.30;99.90;;;;;;5094651;28;20482;-62
2024/04/01 11:54:25;;;;;;;10.60;3.07;;;21.40;99.20;;;;;;5094434;28;20810;-62
2024/04/01 11:56:51;;;;;;;6.27;2.97;;;21.40;97.80;;;;;;5094342;28;20449;-62
2024/04/01 11:59:29;;;;;;;13.60;3.87;;;21.20;97.20;;;;;;5094179;28;20545;-61
2024/04/01 12:01:54;;;;;;;15.53;3.10;;;21.40;98.60;;;;;;5094050;28;20452;-62
2024/04/01 12:04:21;;;;;;;8.13;2.50;;;21.60;98.40;;;;;;5094103;28;20537;-62
2024/04/01 12:06:48;;;;;;;14.53;3.37;;;21.70;98.40;;;;;;5094255;28;20620;-62
2024/04/01 12:09:18;;;;;;;15.33;3.60;;;21.80;98.50;;;;;;5093938;28;20545;-62
2024/04/01 12:11:45;;;;;;;14.33;3.60;;;21.90;98.30;;;;;;5093903;28;20470;-62
2024/04/01 12:14:13;;;;;;;8.47;2.60;;;21.80;98.20;;;;;;5093735;28;20458;-62
2024/04/01 12:16:44;;;;;;;15.30;4.53;;;21.70;97.60;;;;;;5093764;28;20675;-62
2024/04/01 12:19:11;;;;;;;8.20;2.23;;;21.70;98.00;;;;;;5094012;28;20460;-62
2024/04/01 12:21:38;;;;;;;5.50;2.80;;;21.50;97.40;;;;;;5093930;28;20482;-62
2024/04/01 12:24:04;;;;;;;13.13;3.80;;;21.40;98.40;;;;;;5093864;28;20849;-62
2024/04/01 12:26:38;;;;;;;9.80;3.50;;;21.40;98.20;;;;;;5093606;28;20476;-62
2024/04/01 12:29:04;;;;;;;10.13;3.13;;;21.40;97.80;;;;;;5093651;28;20580;-62
2024/04/01 12:31:32;;;;;;;12.97;2.70;;;21.40;98.30;;;;;;5093486;28;20989;-62
2024/04/01 12:33:58;;;;;;;8.47;3.00;;;21.50;98.50;;;;;;5093861;28;20454;-62
2024/04/01 12:36:25;;;;;;;13.27;3.60;;;21.40;98.30;;;;;;5093660;28;20498;-62
2024/04/01 12:38:51;;;;;;;9.77;3.00;;;21.50;98.70;;;;;;5093427;28;20801;-62
2024/04/01 12:41:20;;;;;;;10.53;3.30;;;21.40;98.40;;;;;;5093595;28;20545;-62